Stanley, ID

21:57 MDT le 28 juillet 2016 (GMT -0600)
Stanley | | Change Station

Alt. 6496 ft 44.17 °N, 114.93 °W | Updated 1 hour ago

Clear
69 ° F
Paraît 69 ° F
N
0
Vent Variable Vent de Nord
Gusts mph

Aujourd'hui
Haut(e) -- | Bas -- ° F
--% Risque de précip.
Hier
Haut(e) -- | Bas -- ° F
Precip. -- pouce
Pression 29.96 pouce
Visibilité -9999.0 Miles terrestres
Nuages
Point de rosée 31 ° F
Humidité 24%
Précipitations 0.00 pouce
Profondeur de la couche neigeuse Non disponible.
6:23 AM 9:08 PM
Lune descendante, 26% visible
METAR KSNT 290251Z AUTO 00000KT 21/M01 A3023 RMK AO1 SLP143 T02061006 55004
Pression 29.96 pouce
Visibilité -9999.0 Miles terrestres
Nuages
Point de rosée 31 ° F
Humidité 24%
Précipitations 0.00 pouce
Profondeur de la couche neigeuse Non disponible.
6:23 AM 9:08 PM
Lune descendante, 26% visible
METAR KSNT 290251Z AUTO 00000KT 21/M01 A3023 RMK AO1 SLP143 T02061006 55004

10-Day Weather Forecast

Almanac

Astronomie

Jul. 28, 2016 Lever Coucher
Temps réel
Crépuscule civil
Crépuscule nautique
Crépuscule astronomique
Lune
Durée de lumière visible
Longueur du jour
Tomorrow will be .
, % of the Moon is Illuminated

Extrêmes aujourd'hui

State Highs State Lows

Community

WunderPhotos

Upload Photos

1,928,286 Photos téléchargées !

WunderBlog® & News

Nearby

Qualité de l'air

  Qualité de l'air Indice de la qualité de l'air Polluant
Not available.

Épaisseur de neige

Station Depth Altitude

Activité sismique

Ville Distance Mag. Time & Date
Minimum magnitude displayed is 2.5.

Températures des eaux côtières

Lieu Température

Stations

Stations météo à proximité

Emplacement de la station Température Refroidissement éolien Point de rosée Humidité Vent Precip. Alt. Mise à jour Type
                   

Watches & Warnings

There are currently no watches in effect.